createdAt,value
2023-02-14T11:18:24.851Z,14.45
2023-02-14T11:22:31.078Z,13.43
2023-02-14T11:26:35.012Z,12.85
2023-02-14T11:30:41.237Z,13.25
2023-02-14T11:34:53.833Z,12.40
2023-02-14T11:39:02.361Z,12.70
2023-02-14T11:43:14.606Z,12.73
2023-02-14T11:47:24.629Z,13.55
2023-02-14T11:51:43.058Z,13.23
2023-02-14T11:55:44.605Z,12.73
2023-02-14T11:59:51.027Z,13.18
2023-02-14T12:03:55.499Z,13.13
2023-02-14T12:07:59.936Z,12.45
2023-02-14T12:12:16.112Z,13.02
2023-02-14T12:16:28.247Z,13.13
2023-02-14T12:20:57.326Z,13.50
2023-02-14T12:25:21.405Z,12.13
2023-02-14T12:29:27.900Z,13.98
2023-02-14T12:33:29.652Z,13.07
2023-02-14T12:37:48.750Z,14.65
2023-02-14T12:41:52.094Z,15.07
2023-02-14T12:46:08.755Z,15.18
2023-02-14T12:50:48.036Z,14.73
2023-02-14T12:54:55.633Z,11.07
2023-02-14T12:59:14.281Z,11.60
2023-02-14T13:03:45.355Z,13.48
2023-02-14T13:08:23.827Z,13.65
2023-02-14T13:12:31.148Z,13.27
2023-02-14T13:16:49.496Z,14.57
2023-02-14T13:25:03.749Z,13.95
2023-02-14T13:29:10.912Z,14.45
2023-02-14T13:33:25.214Z,14.02
2023-02-14T13:37:28.384Z,12.25
2023-02-14T13:41:30.683Z,13.85
2023-02-14T13:45:32.056Z,13.05
2023-02-14T13:49:38.524Z,12.43
2023-02-14T13:53:48.522Z,13.30
2023-02-14T13:58:06.304Z,12.05
2023-02-14T14:02:31.775Z,11.48
2023-02-14T14:07:01.167Z,12.52
2023-02-14T14:11:13.189Z,13.18
2023-02-14T14:15:16.911Z,12.68
2023-02-14T14:19:21.857Z,12.45
2023-02-14T14:23:30.961Z,13.68
2023-02-14T14:27:46.142Z,11.73
2023-02-14T14:31:55.195Z,14.00
2023-02-14T14:35:58.597Z,12.43
2023-02-14T14:40:03.747Z,13.68
2023-02-14T14:44:06.606Z,12.32
2023-02-14T14:48:12.567Z,12.20
2023-02-14T14:52:46.520Z,11.93
2023-02-14T14:57:01.475Z,10.88
2023-02-14T15:01:04.345Z,10.98
2023-02-14T15:05:25.831Z,11.98
2023-02-14T15:09:36.108Z,10.93
2023-02-14T15:13:53.803Z,12.02
2023-02-14T15:17:55.935Z,10.65
2023-02-14T15:21:57.589Z,11.68
2023-02-14T15:25:59.228Z,10.40
2023-02-14T15:30:04.855Z,11.55
2023-02-14T15:34:06.836Z,12.18
2023-02-14T15:38:11.993Z,12.23
2023-02-14T15:42:25.654Z,12.27
2023-02-14T15:46:39.203Z,13.35
2023-02-14T15:50:50.154Z,12.93
2023-02-14T15:54:51.678Z,13.95
2023-02-14T15:59:02.781Z,13.30
2023-02-14T16:03:07.642Z,14.05
2023-02-14T16:07:35.410Z,15.75
2023-02-14T16:11:38.591Z,14.50
2023-02-14T16:15:55.283Z,12.43
2023-02-14T16:19:56.717Z,13.35
2023-02-14T16:24:07.243Z,14.73
2023-02-14T16:28:08.794Z,11.40
2023-02-14T16:32:16.839Z,12.98
2023-02-14T16:36:24.430Z,12.70
2023-02-14T16:40:28.681Z,14.18
2023-02-14T16:44:30.971Z,14.38
2023-02-14T16:48:32.410Z,14.98
2023-02-14T16:52:34.639Z,14.85
2023-02-14T16:56:38.706Z,13.05
2023-02-14T17:00:40.159Z,12.73
2023-02-14T17:04:41.879Z,13.40
2023-02-14T17:08:43.770Z,13.30
2023-02-14T17:12:48.294Z,12.75
2023-02-14T17:16:50.483Z,13.73
2023-02-14T17:20:52.039Z,14.30
2023-02-14T17:24:54.647Z,13.27
2023-02-14T17:28:57.610Z,14.32
2023-02-14T17:32:59.126Z,14.95
2023-02-14T17:37:00.612Z,13.93
2023-02-14T17:41:16.859Z,14.75
2023-02-14T17:45:18.352Z,14.10
2023-02-14T17:49:19.845Z,13.70
2023-02-14T17:53:21.376Z,16.15
2023-02-14T17:57:22.854Z,14.68
2023-02-14T18:01:27.151Z,14.38
2023-02-14T18:05:28.703Z,16.00
2023-02-14T18:09:30.714Z,16.15
2023-02-14T18:13:32.309Z,16.48
2023-02-14T18:17:33.847Z,17.80
2023-02-14T18:21:39.859Z,15.27
2023-02-14T18:25:49.301Z,16.05
2023-02-14T18:29:50.873Z,17.60
2023-02-14T18:33:52.652Z,16.20
2023-02-14T18:37:54.084Z,16.23
2023-02-14T18:41:59.793Z,15.75
2023-02-14T18:46:10.164Z,17.10
2023-02-14T18:50:11.807Z,14.75
2023-02-14T18:54:13.226Z,16.05
2023-02-14T18:58:14.652Z,16.65
2023-02-14T19:02:16.611Z,16.20
2023-02-14T19:06:19.136Z,16.88
2023-02-14T19:10:20.610Z,16.23
2023-02-14T19:14:22.050Z,17.45
2023-02-14T19:18:25.634Z,19.08
2023-02-14T19:22:27.178Z,17.52
2023-02-14T19:26:37.059Z,16.77
2023-02-14T19:34:39.892Z,14.77
2023-02-14T19:38:43.546Z,15.35
2023-02-14T19:42:45.258Z,16.55
2023-02-14T19:46:47.716Z,16.48
2023-02-14T19:50:50.129Z,15.77
2023-02-14T19:54:51.547Z,17.98
2023-02-14T19:58:53.583Z,16.63
2023-02-14T20:02:55.068Z,16.58
2023-02-14T20:06:57.024Z,18.15
2023-02-14T20:10:58.832Z,17.92
2023-02-14T20:15:00.484Z,17.73
2023-02-14T20:19:08.732Z,17.55
2023-02-14T20:23:10.460Z,18.17
2023-02-14T20:27:12.008Z,18.58
2023-02-14T20:31:16.207Z,17.77
2023-02-14T20:35:17.665Z,17.13
2023-02-14T20:39:21.427Z,17.92
2023-02-14T20:43:25.871Z,18.20
2023-02-14T20:47:28.626Z,17.17
2023-02-14T20:51:30.167Z,17.33
2023-02-14T20:55:31.709Z,18.23
2023-02-14T20:59:33.240Z,15.27
2023-02-14T21:03:36.265Z,17.27
2023-02-14T21:07:38.194Z,17.45
2023-02-14T21:11:39.651Z,15.30
2023-02-14T21:15:41.192Z,14.52
2023-02-14T21:19:42.664Z,15.20
2023-02-14T21:23:44.389Z,15.50
2023-02-14T21:27:46.735Z,16.58
2023-02-14T21:31:48.332Z,14.60
2023-02-14T21:35:49.824Z,14.40
2023-02-14T21:39:51.268Z,15.10
2023-02-14T21:43:54.104Z,13.43
2023-02-14T21:48:13.820Z,13.95
2023-02-14T21:52:15.381Z,13.25
2023-02-14T21:56:19.822Z,14.15
2023-02-14T22:00:22.609Z,13.32
2023-02-14T22:04:24.537Z,13.30
2023-02-14T22:08:25.943Z,13.52
2023-02-14T22:12:28.537Z,13.93
2023-02-14T22:16:29.991Z,14.10
2023-02-14T22:20:31.837Z,14.90
2023-02-14T22:24:33.319Z,13.98
2023-02-14T22:28:34.781Z,14.00
2023-02-14T22:32:36.246Z,14.60
2023-02-14T22:36:37.760Z,15.43
2023-02-14T22:40:39.171Z,15.57
2023-02-14T22:44:40.604Z,14.45
2023-02-14T22:48:42.115Z,13.50
2023-02-14T22:52:43.564Z,16.13
2023-02-14T22:56:47.621Z,15.68
2023-02-14T23:00:49.076Z,15.02
2023-02-14T23:04:50.982Z,14.35
2023-02-14T23:08:53.636Z,14.75
2023-02-14T23:13:13.565Z,15.77
2023-02-14T23:17:16.083Z,14.80
2023-02-14T23:21:35.929Z,15.77
2023-02-14T23:25:37.332Z,15.63
2023-02-14T23:29:38.801Z,15.20
2023-02-14T23:33:40.196Z,15.15
2023-02-14T23:37:41.789Z,14.65
2023-02-14T23:41:51.994Z,14.68
2023-02-14T23:45:53.510Z,16.98
2023-02-14T23:49:54.950Z,16.25
2023-02-14T23:53:56.423Z,13.85
2023-02-14T23:57:57.848Z,14.55
